sensor_id;sensor_type;location;lat;lon;timestamp;pressure;altitude;pressure_sealevel;temperature;humidity
30875;BME280;17581;43.222;27.924;2023-02-15T00:01:07;101929.94;;;7.26;55.23
30875;BME280;17581;43.222;27.924;2023-02-15T00:03:33;101926.34;;;7.27;55.08
30875;BME280;17581;43.222;27.924;2023-02-15T00:05:59;101935.75;;;7.36;55.06
30875;BME280;17581;43.222;27.924;2023-02-15T00:08:25;101920.03;;;7.28;54.92
30875;BME280;17581;43.222;27.924;2023-02-15T00:10:50;101929.47;;;7.37;55.08
30875;BME280;17581;43.222;27.924;2023-02-15T00:13:16;101923.25;;;7.36;54.55
30875;BME280;17581;43.222;27.924;2023-02-15T00:15:41;101925.81;;;7.38;54.96
30875;BME280;17581;43.222;27.924;2023-02-15T00:18:06;101930.59;;;7.31;55.11
30875;BME280;17581;43.222;27.924;2023-02-15T00:20:32;101938.56;;;7.33;54.98
30875;BME280;17581;43.222;27.924;2023-02-15T00:22:58;101936.09;;;7.28;55.30
30875;BME280;17581;43.222;27.924;2023-02-15T00:25:24;101931.69;;;7.27;55.60
30875;BME280;17581;43.222;27.924;2023-02-15T00:27:49;101932.78;;;7.23;55.92
30875;BME280;17581;43.222;27.924;2023-02-15T00:30:16;101924.69;;;7.25;55.49
30875;BME280;17581;43.222;27.924;2023-02-15T00:32:42;101918.53;;;7.23;55.95
30875;BME280;17581;43.222;27.924;2023-02-15T00:35:07;101913.53;;;7.15;55.65
30875;BME280;17581;43.222;27.924;2023-02-15T00:37:34;101920.75;;;7.13;56.21
30875;BME280;17581;43.222;27.924;2023-02-15T00:40:00;101931.88;;;7.04;56.57
30875;BME280;17581;43.222;27.924;2023-02-15T00:42:25;101935.66;;;7.00;56.60
30875;BME280;17581;43.222;27.924;2023-02-15T00:44:51;101921.47;;;6.98;56.34
30875;BME280;17581;43.222;27.924;2023-02-15T00:47:16;101922.06;;;7.04;56.50
30875;BME280;17581;43.222;27.924;2023-02-15T00:49:42;101924.81;;;7.03;56.20
30875;BME280;17581;43.222;27.924;2023-02-15T00:52:07;101916.84;;;7.01;56.35
30875;BME280;17581;43.222;27.924;2023-02-15T00:54:32;101918.44;;;7.05;56.11
30875;BME280;17581;43.222;27.924;2023-02-15T00:56:59;101918.66;;;7.01;56.16
30875;BME280;17581;43.222;27.924;2023-02-15T00:59:25;101907.44;;;6.93;56.67
30875;BME280;17581;43.222;27.924;2023-02-15T01:01:50;101914.81;;;6.88;56.70
30875;BME280;17581;43.222;27.924;2023-02-15T01:04:16;101912.16;;;6.88;56.36
30875;BME280;17581;43.222;27.924;2023-02-15T01:06:41;101904.31;;;6.83;56.63
30875;BME280;17581;43.222;27.924;2023-02-15T01:09:07;101900.19;;;6.76;56.69
30875;BME280;17581;43.222;27.924;2023-02-15T01:11:32;101898.38;;;6.77;56.51
30875;BME280;17581;43.222;27.924;2023-02-15T01:13:58;101895.19;;;6.69;57.06
30875;BME280;17581;43.222;27.924;2023-02-15T01:16:26;101915.25;;;6.79;56.89
30875;BME280;17581;43.222;27.924;2023-02-15T01:18:52;101924.19;;;6.78;57.25
30875;BME280;17581;43.222;27.924;2023-02-15T01:21:21;101920.78;;;6.74;57.31
30875;BME280;17581;43.222;27.924;2023-02-15T01:23:46;101921.09;;;6.67;57.40
30875;BME280;17581;43.222;27.924;2023-02-15T01:26:12;101921.25;;;6.64;57.51
30875;BME280;17581;43.222;27.924;2023-02-15T01:28:38;101926.03;;;6.57;57.56
30875;BME280;17581;43.222;27.924;2023-02-15T01:31:08;101936.63;;;6.58;57.82
30875;BME280;17581;43.222;27.924;2023-02-15T01:33:35;101926.19;;;6.52;57.96
30875;BME280;17581;43.222;27.924;2023-02-15T01:36:01;101917.59;;;6.46;58.24
30875;BME280;17581;43.222;27.924;2023-02-15T01:38:26;101919.50;;;6.42;58.26
30875;BME280;17581;43.222;27.924;2023-02-15T01:40:53;101920.34;;;6.44;58.42
30875;BME280;17581;43.222;27.924;2023-02-15T01:43:19;101917.81;;;6.41;58.58
30875;BME280;17581;43.222;27.924;2023-02-15T01:45:47;101906.56;;;6.33;58.62
30875;BME280;17581;43.222;27.924;2023-02-15T01:50:44;101919.66;;;6.39;58.71
30875;BME280;17581;43.222;27.924;2023-02-15T01:55:47;101919.38;;;6.45;58.54
30875;BME280;17581;43.222;27.924;2023-02-15T01:58:13;101917.31;;;6.52;58.58
30875;BME280;17581;43.222;27.924;2023-02-15T02:00:40;101917.41;;;6.50;58.33
30875;BME280;17581;43.222;27.924;2023-02-15T02:03:05;101922.06;;;6.45;58.57
30875;BME280;17581;43.222;27.924;2023-02-15T02:05:32;101924.72;;;6.45;58.77
30875;BME280;17581;43.222;27.924;2023-02-15T02:07:59;101917.81;;;6.41;58.64
30875;BME280;17581;43.222;27.924;2023-02-15T02:10:26;101909.19;;;6.35;58.81
30875;BME280;17581;43.222;27.924;2023-02-15T02:12:55;101913.50;;;6.37;58.95
30875;BME280;17581;43.222;27.924;2023-02-15T02:15:29;101912.84;;;6.32;59.14
30875;BME280;17581;43.222;27.924;2023-02-15T02:18:32;101925.47;;;6.29;59.05
30875;BME280;17581;43.222;27.924;2023-02-15T02:21:24;101924.69;;;6.27;59.27
30875;BME280;17581;43.222;27.924;2023-02-15T02:27:16;101933.53;;;6.27;59.27
30875;BME280;17581;43.222;27.924;2023-02-15T02:30:12;101926.47;;;6.26;59.22
30875;BME280;17581;43.222;27.924;2023-02-15T02:32:52;101933.53;;;6.27;59.56
30875;BME280;17581;43.222;27.924;2023-02-15T02:35:30;101931.81;;;6.26;59.39
30875;BME280;17581;43.222;27.924;2023-02-15T02:40:52;101928.72;;;6.15;59.77
30875;BME280;17581;43.222;27.924;2023-02-15T02:43:38;101948.25;;;6.17;59.80
30875;BME280;17581;43.222;27.924;2023-02-15T02:48:34;101935.69;;;6.19;59.55
30875;BME280;17581;43.222;27.924;2023-02-15T02:51:00;101948.78;;;6.25;59.71
30875;BME280;17581;43.222;27.924;2023-02-15T02:53:27;101951.56;;;6.22;59.53
30875;BME280;17581;43.222;27.924;2023-02-15T03:01:43;101944.75;;;6.15;60.19
30875;BME280;17581;43.222;27.924;2023-02-15T03:04:17;101954.44;;;6.18;60.03
30875;BME280;17581;43.222;27.924;2023-02-15T03:06:47;101949.91;;;6.20;59.81
30875;BME280;17581;43.222;27.924;2023-02-15T03:11:45;101959.06;;;6.14;60.39
30875;BME280;17581;43.222;27.924;2023-02-15T03:14:14;101939.00;;;6.04;60.44
30875;BME280;17581;43.222;27.924;2023-02-15T03:16:42;101958.34;;;6.09;60.34
30875;BME280;17581;43.222;27.924;2023-02-15T03:19:19;101968.13;;;6.10;60.44
30875;BME280;17581;43.222;27.924;2023-02-15T03:21:49;101947.88;;;6.05;60.62
30875;BME280;17581;43.222;27.924;2023-02-15T03:24:26;101963.94;;;6.03;60.85
30875;BME280;17581;43.222;27.924;2023-02-15T03:26:54;101964.03;;;6.01;61.22
30875;BME280;17581;43.222;27.924;2023-02-15T03:29:24;101971.91;;;6.05;60.94
30875;BME280;17581;43.222;27.924;2023-02-15T03:32:00;101960.66;;;5.96;60.90
30875;BME280;17581;43.222;27.924;2023-02-15T03:34:26;101961.28;;;6.03;61.17
30875;BME280;17581;43.222;27.924;2023-02-15T03:39:33;101974.47;;;6.08;61.35
30875;BME280;17581;43.222;27.924;2023-02-15T03:42:32;101968.28;;;6.06;61.29
30875;BME280;17581;43.222;27.924;2023-02-15T03:45:01;101980.81;;;6.05;61.05
30875;BME280;17581;43.222;27.924;2023-02-15T03:47:34;101970.13;;;6.05;61.12
30875;BME280;17581;43.222;27.924;2023-02-15T03:50:05;101971.44;;;5.95;61.62
30875;BME280;17581;43.222;27.924;2023-02-15T03:52:54;101981.06;;;5.99;61.55
30875;BME280;17581;43.222;27.924;2023-02-15T03:55:20;101970.75;;;5.90;61.75
30875;BME280;17581;43.222;27.924;2023-02-15T03:57:45;101989.56;;;5.87;62.01
30875;BME280;17581;43.222;27.924;2023-02-15T04:00:31;101988.50;;;5.91;62.12
30875;BME280;17581;43.222;27.924;2023-02-15T04:03:40;101978.94;;;5.85;62.13
30875;BME280;17581;43.222;27.924;2023-02-15T04:06:07;101981.44;;;5.90;61.95
30875;BME280;17581;43.222;27.924;2023-02-15T04:08:33;101984.31;;;5.84;62.34
30875;BME280;17581;43.222;27.924;2023-02-15T04:11:16;101984.94;;;5.90;62.22
30875;BME280;17581;43.222;27.924;2023-02-15T04:13:42;101974.22;;;5.92;61.79
30875;BME280;17581;43.222;27.924;2023-02-15T04:16:08;101982.91;;;5.97;62.05
30875;BME280;17581;43.222;27.924;2023-02-15T04:18:37;101983.84;;;5.96;62.03
30875;BME280;17581;43.222;27.924;2023-02-15T04:21:23;101998.25;;;5.92;62.15
30875;BME280;17581;43.222;27.924;2023-02-15T04:24:08;101994.66;;;5.93;62.18
30875;BME280;17581;43.222;27.924;2023-02-15T04:26:52;101993.53;;;5.98;61.80
30875;BME280;17581;43.222;27.924;2023-02-15T04:29:19;102006.06;;;5.96;61.91
30875;BME280;17581;43.222;27.924;2023-02-15T04:31:44;102007.75;;;5.99;61.98
30875;BME280;17581;43.222;27.924;2023-02-15T04:34:10;102002.47;;;5.97;61.92
30875;BME280;17581;43.222;27.924;2023-02-15T04:36:37;102019.00;;;6.07;62.05
30875;BME280;17581;43.222;27.924;2023-02-15T04:39:02;102016.50;;;6.02;61.55
30875;BME280;17581;43.222;27.924;2023-02-15T04:41:28;102001.53;;;5.98;61.88
30875;BME280;17581;43.222;27.924;2023-02-15T04:43:53;102013.94;;;5.99;62.02
30875;BME280;17581;43.222;27.924;2023-02-15T04:46:19;102025.97;;;6.11;61.89
30875;BME280;17581;43.222;27.924;2023-02-15T04:48:44;102021.53;;;6.10;61.61
30875;BME280;17581;43.222;27.924;2023-02-15T04:51:10;102015.41;;;6.08;61.50
30875;BME280;17581;43.222;27.924;2023-02-15T04:53:36;102036.06;;;6.03;61.65
30875;BME280;17581;43.222;27.924;2023-02-15T04:56:02;102036.19;;;6.00;61.74
30875;BME280;17581;43.222;27.924;2023-02-15T04:58:27;102022.28;;;5.92;61.76
30875;BME280;17581;43.222;27.924;2023-02-15T05:00:56;102035.38;;;5.98;61.70
30875;BME280;17581;43.222;27.924;2023-02-15T05:03:22;102050.41;;;6.00;61.73
30875;BME280;17581;43.222;27.924;2023-02-15T05:05:47;102051.09;;;6.06;61.83
30875;BME280;17581;43.222;27.924;2023-02-15T05:08:13;102055.72;;;6.02;61.73
30875;BME280;17581;43.222;27.924;2023-02-15T05:10:38;102036.56;;;5.91;61.70
30875;BME280;17581;43.222;27.924;2023-02-15T05:13:04;102056.38;;;6.07;61.73
30875;BME280;17581;43.222;27.924;2023-02-15T05:15:29;102067.63;;;6.15;61.41
30875;BME280;17581;43.222;27.924;2023-02-15T05:17:54;102066.16;;;6.08;61.81
30875;BME280;17581;43.222;27.924;2023-02-15T05:20:20;102066.03;;;6.11;61.39
30875;BME280;17581;43.222;27.924;2023-02-15T05:22:45;102067.31;;;6.01;61.30
30875;BME280;17581;43.222;27.924;2023-02-15T05:25:11;102080.00;;;5.96;61.35
30875;BME280;17581;43.222;27.924;2023-02-15T05:27:54;102083.63;;;5.93;61.56
30875;BME280;17581;43.222;27.924;2023-02-15T05:30:39;102075.09;;;5.84;61.92
30875;BME280;17581;43.222;27.924;2023-02-15T05:33:05;102094.41;;;5.90;62.37
30875;BME280;17581;43.222;27.924;2023-02-15T05:35:32;102081.91;;;5.92;61.70
30875;BME280;17581;43.222;27.924;2023-02-15T05:37:57;102089.09;;;5.90;62.25
30875;BME280;17581;43.222;27.924;2023-02-15T05:40:23;102087.88;;;5.99;62.17
30875;BME280;17581;43.222;27.924;2023-02-15T05:42:49;102101.66;;;6.10;61.86
30875;BME280;17581;43.222;27.924;2023-02-15T05:45:15;102096.25;;;6.12;61.75
30875;BME280;17581;43.222;27.924;2023-02-15T05:47:41;102108.41;;;6.20;61.15
30875;BME280;17581;43.222;27.924;2023-02-15T05:50:07;102097.88;;;6.16;61.54
30875;BME280;17581;43.222;27.924;2023-02-15T05:52:34;102108.16;;;6.26;61.68
30875;BME280;17581;43.222;27.924;2023-02-15T05:54:59;102099.19;;;6.27;61.25
30875;BME280;17581;43.222;27.924;2023-02-15T05:57:26;102104.53;;;6.27;61.30
30875;BME280;17581;43.222;27.924;2023-02-15T05:59:51;102110.94;;;6.23;61.04
30875;BME280;17581;43.222;27.924;2023-02-15T06:02:17;102110.81;;;6.26;61.49
30875;BME280;17581;43.222;27.924;2023-02-15T06:04:43;102094.91;;;6.23;61.09
30875;BME280;17581;43.222;27.924;2023-02-15T06:07:08;102104.16;;;6.36;60.96
30875;BME280;17581;43.222;27.924;2023-02-15T06:09:34;102126.16;;;6.43;60.80
30875;BME280;17581;43.222;27.924;2023-02-15T06:11:59;102120.56;;;6.49;60.50
30875;BME280;17581;43.222;27.924;2023-02-15T06:14:25;102111.94;;;6.42;60.70
30875;BME280;17581;43.222;27.924;2023-02-15T06:16:50;102134.81;;;6.49;60.53
30875;BME280;17581;43.222;27.924;2023-02-15T06:19:16;102133.88;;;6.50;60.46
30875;BME280;17581;43.222;27.924;2023-02-15T06:21:41;102145.00;;;6.62;60.15
30875;BME280;17581;43.222;27.924;2023-02-15T06:24:08;102126.28;;;6.62;60.66
30875;BME280;17581;43.222;27.924;2023-02-15T06:26:34;102129.88;;;6.61;60.19
30875;BME280;17581;43.222;27.924;2023-02-15T06:28:59;102126.78;;;6.71;60.64
30875;BME280;17581;43.222;27.924;2023-02-15T06:31:25;102125.41;;;6.83;60.40
30875;BME280;17581;43.222;27.924;2023-02-15T06:33:50;102119.25;;;6.81;59.67
30875;BME280;17581;43.222;27.924;2023-02-15T06:36:16;102125.97;;;6.91;59.67
30875;BME280;17581;43.222;27.924;2023-02-15T06:38:41;102131.91;;;6.97;59.47
30875;BME280;17581;43.222;27.924;2023-02-15T06:41:07;102132.72;;;6.99;59.56
30875;BME280;17581;43.222;27.924;2023-02-15T06:43:32;102136.06;;;7.04;59.18
30875;BME280;17581;43.222;27.924;2023-02-15T06:45:59;102139.88;;;6.99;59.08
30875;BME280;17581;43.222;27.924;2023-02-15T06:48:24;102137.69;;;7.08;59.21
30875;BME280;17581;43.222;27.924;2023-02-15T06:50:50;102147.03;;;7.19;58.57
30875;BME280;17581;43.222;27.924;2023-02-15T06:53:15;102137.00;;;7.24;58.90
30875;BME280;17581;43.222;27.924;2023-02-15T06:55:41;102145.50;;;7.13;58.32
30875;BME280;17581;43.222;27.924;2023-02-15T06:58:06;102137.19;;;7.19;58.70
30875;BME280;17581;43.222;27.924;2023-02-15T07:00:32;102149.47;;;7.25;58.31
30875;BME280;17581;43.222;27.924;2023-02-15T07:02:58;102146.72;;;7.26;57.96
30875;BME280;17581;43.222;27.924;2023-02-15T07:05:27;102131.97;;;7.16;58.02
30875;BME280;17581;43.222;27.924;2023-02-15T07:07:59;102140.34;;;7.29;58.19
30875;BME280;17581;43.222;27.924;2023-02-15T07:10:25;102150.50;;;7.41;57.96
30875;BME280;17581;43.222;27.924;2023-02-15T07:12:51;102148.44;;;7.47;58.16
30875;BME280;17581;43.222;27.924;2023-02-15T07:15:17;102150.72;;;7.56;57.21
30875;BME280;17581;43.222;27.924;2023-02-15T07:17:43;102151.81;;;7.71;57.06
30875;BME280;17581;43.222;27.924;2023-02-15T07:20:18;102153.38;;;7.77;56.78
30875;BME280;17581;43.222;27.924;2023-02-15T07:22:44;102152.41;;;7.78;56.41
30875;BME280;17581;43.222;27.924;2023-02-15T07:25:11;102170.88;;;7.84;55.94
30875;BME280;17581;43.222;27.924;2023-02-15T07:27:38;102151.63;;;7.76;56.31
30875;BME280;17581;43.222;27.924;2023-02-15T07:30:05;102162.47;;;7.73;55.97
30875;BME280;17581;43.222;27.924;2023-02-15T07:32:31;102162.25;;;7.77;56.24
30875;BME280;17581;43.222;27.924;2023-02-15T07:34:58;102155.94;;;7.59;56.46
30875;BME280;17581;43.222;27.924;2023-02-15T07:37:24;102168.84;;;7.70;56.57
30875;BME280;17581;43.222;27.924;2023-02-15T07:39:49;102175.31;;;7.64;56.13
30875;BME280;17581;43.222;27.924;2023-02-15T07:42:14;102169.69;;;7.71;55.95
30875;BME280;17581;43.222;27.924;2023-02-15T07:44:40;102154.91;;;7.62;56.02
30875;BME280;17581;43.222;27.924;2023-02-15T07:47:05;102176.81;;;7.72;56.09
30875;BME280;17581;43.222;27.924;2023-02-15T07:49:31;102176.38;;;7.81;55.88
30875;BME280;17581;43.222;27.924;2023-02-15T07:51:57;102156.53;;;7.66;55.68
30875;BME280;17581;43.222;27.924;2023-02-15T07:54:22;102159.53;;;7.58;55.13
30875;BME280;17581;43.222;27.924;2023-02-15T07:56:47;102162.63;;;7.70;55.23
30875;BME280;17581;43.222;27.924;2023-02-15T07:59:13;102183.63;;;7.79;55.67
30875;BME280;17581;43.222;27.924;2023-02-15T08:01:39;102132.06;;;7.74;55.59
30875;BME280;17581;43.222;27.924;2023-02-15T08:04:06;102167.88;;;7.91;54.87
30875;BME280;17581;43.222;27.924;2023-02-15T08:06:36;102152.81;;;7.89;54.69
30875;BME280;17581;43.222;27.924;2023-02-15T08:09:07;102157.81;;;7.96;54.50
30875;BME280;17581;43.222;27.924;2023-02-15T08:11:37;102159.31;;;8.02;54.58
30875;BME280;17581;43.222;27.924;2023-02-15T08:17:00;102175.25;;;8.05;53.44
30875;BME280;17581;43.222;27.924;2023-02-15T08:19:29;102162.97;;;8.01;53.15
30875;BME280;17581;43.222;27.924;2023-02-15T08:21:58;102163.47;;;8.09;53.39
30875;BME280;17581;43.222;27.924;2023-02-15T08:24:29;102165.91;;;8.13;53.05
30875;BME280;17581;43.222;27.924;2023-02-15T08:26:55;102167.19;;;8.25;53.12
30875;BME280;17581;43.222;27.924;2023-02-15T08:29:23;102160.53;;;8.34;52.25
30875;BME280;17581;43.222;27.924;2023-02-15T08:31:52;102157.91;;;8.51;52.41
30875;BME280;17581;43.222;27.924;2023-02-15T08:34:19;102157.59;;;8.57;51.45
30875;BME280;17581;43.222;27.924;2023-02-15T08:36:45;102144.19;;;8.57;51.30
30875;BME280;17581;43.222;27.924;2023-02-15T08:39:11;102134.00;;;8.46;50.93
30875;BME280;17581;43.222;27.924;2023-02-15T08:41:38;102175.34;;;8.59;50.89
30875;BME280;17581;43.222;27.924;2023-02-15T08:44:08;102173.13;;;8.50;50.83
30875;BME280;17581;43.222;27.924;2023-02-15T08:46:37;102159.06;;;8.45;50.92
30875;BME280;17581;43.222;27.924;2023-02-15T08:49:03;102184.84;;;8.66;50.73
30875;BME280;17581;43.222;27.924;2023-02-15T08:51:31;102171.00;;;8.75;51.14
30875;BME280;17581;43.222;27.924;2023-02-15T08:53:59;102178.00;;;8.78;50.57
30875;BME280;17581;43.222;27.924;2023-02-15T08:56:27;102177.03;;;8.81;50.46
30875;BME280;17581;43.222;27.924;2023-02-15T08:58:54;102168.00;;;8.82;50.34
30875;BME280;17581;43.222;27.924;2023-02-15T09:01:22;102168.13;;;8.97;49.94
30875;BME280;17581;43.222;27.924;2023-02-15T09:03:50;102148.41;;;8.98;49.50
30875;BME280;17581;43.222;27.924;2023-02-15T09:06:18;102161.56;;;9.03;48.73
30875;BME280;17581;43.222;27.924;2023-02-15T09:08:43;102149.72;;;9.07;48.76
30875;BME280;17581;43.222;27.924;2023-02-15T09:11:27;102145.47;;;9.03;48.84
30875;BME280;17581;43.222;27.924;2023-02-15T09:13:55;102150.19;;;9.15;49.04
30875;BME280;17581;43.222;27.924;2023-02-15T09:16:22;102161.66;;;9.18;48.34
30875;BME280;17581;43.222;27.924;2023-02-15T09:18:49;102135.03;;;8.97;48.93
30875;BME280;17581;43.222;27.924;2023-02-15T09:21:18;102159.53;;;9.08;48.68
30875;BME280;17581;43.222;27.924;2023-02-15T09:23:46;102124.91;;;8.85;48.26
30875;BME280;17581;43.222;27.924;2023-02-15T09:26:15;102152.72;;;9.01;47.94
30875;BME280;17581;43.222;27.924;2023-02-15T09:28:41;102157.78;;;9.07;47.63
30875;BME280;17581;43.222;27.924;2023-02-15T09:31:12;102143.44;;;9.08;47.61
30875;BME280;17581;43.222;27.924;2023-02-15T09:33:39;102147.34;;;9.18;47.67
30875;BME280;17581;43.222;27.924;2023-02-15T09:36:12;102141.34;;;9.30;47.89
30875;BME280;17581;43.222;27.924;2023-02-15T09:38:38;102137.88;;;9.28;47.60
30875;BME280;17581;43.222;27.924;2023-02-15T10:01:09;102137.44;;;9.70;45.90
30875;BME280;17581;43.222;27.924;2023-02-15T10:06:36;102127.72;;;9.67;46.18
30875;BME280;17581;43.222;27.924;2023-02-15T10:09:22;102111.88;;;9.63;46.27
30875;BME280;17581;43.222;27.924;2023-02-15T10:17:30;102134.75;;;10.03;45.24
30875;BME280;17581;43.222;27.924;2023-02-15T10:20:17;102122.66;;;9.94;44.94
30875;BME280;17581;43.222;27.924;2023-02-15T10:27:48;102109.53;;;9.72;45.22
30875;BME280;17581;43.222;27.924;2023-02-15T10:30:16;102103.03;;;9.76;45.42
30875;BME280;17581;43.222;27.924;2023-02-15T10:35:41;102111.66;;;9.83;45.60
30875;BME280;17581;43.222;27.924;2023-02-15T10:38:20;102089.63;;;9.76;45.50
30875;BME280;17581;43.222;27.924;2023-02-15T10:57:01;102097.09;;;9.87;44.78
30875;BME280;17581;43.222;27.924;2023-02-15T11:02:16;102101.44;;;9.90;44.43
30875;BME280;17581;43.222;27.924;2023-02-15T11:04:59;102099.84;;;9.85;44.94
30875;BME280;17581;43.222;27.924;2023-02-15T11:07:38;102095.53;;;9.99;44.49
30875;BME280;17581;43.222;27.924;2023-02-15T11:12:49;102090.91;;;10.18;44.34
30875;BME280;17581;43.222;27.924;2023-02-15T11:15:34;102113.09;;;10.21;43.61
30875;BME280;17581;43.222;27.924;2023-02-15T11:23:48;102096.13;;;10.21;43.46
30875;BME280;17581;43.222;27.924;2023-02-15T11:26:20;102093.50;;;10.35;43.46
30875;BME280;17581;43.222;27.924;2023-02-15T11:28:53;102083.97;;;10.45;43.18
30875;BME280;17581;43.222;27.924;2023-02-15T11:31:25;102091.22;;;10.59;43.16
30875;BME280;17581;43.222;27.924;2023-02-15T11:34:30;102088.13;;;10.80;42.47
30875;BME280;17581;43.222;27.924;2023-02-15T11:37:01;102090.97;;;10.93;42.04
30875;BME280;17581;43.222;27.924;2023-02-15T11:39:30;102091.38;;;11.01;41.92
30875;BME280;17581;43.222;27.924;2023-02-15T11:42:02;102083.66;;;10.95;41.90
30875;BME280;17581;43.222;27.924;2023-02-15T11:44:35;102081.59;;;11.00;41.99
30875;BME280;17581;43.222;27.924;2023-02-15T11:47:12;102085.41;;;10.96;42.57
30875;BME280;17581;43.222;27.924;2023-02-15T11:49:38;102054.28;;;10.76;41.94
30875;BME280;17581;43.222;27.924;2023-02-15T11:52:10;102067.22;;;10.85;42.09
30875;BME280;17581;43.222;27.924;2023-02-15T11:54:41;102071.41;;;10.75;42.40
30875;BME280;17581;43.222;27.924;2023-02-15T11:57:31;102082.94;;;10.77;42.19
30875;BME280;17581;43.222;27.924;2023-02-15T12:00:32;102072.72;;;10.68;42.22
30875;BME280;17581;43.222;27.924;2023-02-15T12:03:07;102073.63;;;10.53;42.81
30875;BME280;17581;43.222;27.924;2023-02-15T12:05:36;102073.63;;;10.53;42.38
30875;BME280;17581;43.222;27.924;2023-02-15T12:08:12;102061.41;;;10.48;42.30
30875;BME280;17581;43.222;27.924;2023-02-15T12:10:48;102064.78;;;10.51;42.18
30875;BME280;17581;43.222;27.924;2023-02-15T12:13:18;102066.56;;;10.66;42.40
30875;BME280;17581;43.222;27.924;2023-02-15T12:15:46;102065.03;;;10.76;41.89
30875;BME280;17581;43.222;27.924;2023-02-15T12:18:40;102052.03;;;10.84;41.07
30875;BME280;17581;43.222;27.924;2023-02-15T12:21:25;102056.59;;;10.82;40.84
30875;BME280;17581;43.222;27.924;2023-02-15T12:23:54;102052.78;;;10.86;40.99
30875;BME280;17581;43.222;27.924;2023-02-15T12:26:29;102047.16;;;11.05;40.76
30875;BME280;17581;43.222;27.924;2023-02-15T12:28:59;102059.94;;;11.02;40.13
30875;BME280;17581;43.222;27.924;2023-02-15T12:31:39;102056.28;;;10.88;40.91
30875;BME280;17581;43.222;27.924;2023-02-15T12:34:22;102048.78;;;10.93;41.19
30875;BME280;17581;43.222;27.924;2023-02-15T12:36:51;102033.69;;;10.91;41.56
30875;BME280;17581;43.222;27.924;2023-02-15T12:39:28;102050.72;;;11.20;41.22
30875;BME280;17581;43.222;27.924;2023-02-15T12:46:59;102044.69;;;11.44;39.91
30875;BME280;17581;43.222;27.924;2023-02-15T12:49:26;102049.28;;;11.28;39.55
30875;BME280;17581;43.222;27.924;2023-02-15T12:52:00;102046.09;;;11.08;40.58
30875;BME280;17581;43.222;27.924;2023-02-15T12:54:41;102055.16;;;11.07;40.82
30875;BME280;17581;43.222;27.924;2023-02-15T12:57:29;102052.41;;;10.92;40.75
30875;BME280;17581;43.222;27.924;2023-02-15T13:00:06;102050.81;;;10.74;41.34
30875;BME280;17581;43.222;27.924;2023-02-15T13:02:54;102050.59;;;10.63;41.50
30875;BME280;17581;43.222;27.924;2023-02-15T13:05:39;102047.66;;;10.52;42.26
30875;BME280;17581;43.222;27.924;2023-02-15T13:08:20;102061.06;;;10.38;42.67
30875;BME280;17581;43.222;27.924;2023-02-15T13:10:59;102045.28;;;10.32;42.86
30875;BME280;17581;43.222;27.924;2023-02-15T13:13:27;102052.41;;;10.33;43.13
30875;BME280;17581;43.222;27.924;2023-02-15T13:15:59;102048.22;;;10.27;43.42
30875;BME280;17581;43.222;27.924;2023-02-15T13:20:56;102048.56;;;10.21;43.20
30875;BME280;17581;43.222;27.924;2023-02-15T13:23:29;102038.16;;;10.15;43.67
30875;BME280;17581;43.222;27.924;2023-02-15T13:25:58;102042.53;;;10.18;43.86
30875;BME280;17581;43.222;27.924;2023-02-15T13:28:46;102044.16;;;10.20;43.84
30875;BME280;17581;43.222;27.924;2023-02-15T13:31:15;102048.38;;;10.40;43.65
30875;BME280;17581;43.222;27.924;2023-02-15T13:33:49;102045.44;;;10.45;43.36
30875;BME280;17581;43.222;27.924;2023-02-15T13:36:51;102046.47;;;10.42;43.64
30875;BME280;17581;43.222;27.924;2023-02-15T13:39:24;102030.88;;;10.33;44.07
30875;BME280;17581;43.222;27.924;2023-02-15T13:44:53;102038.16;;;10.31;44.21
30875;BME280;17581;43.222;27.924;2023-02-15T13:47:34;102040.44;;;10.23;44.13
30875;BME280;17581;43.222;27.924;2023-02-15T13:55:40;102039.16;;;10.13;44.83
30875;BME280;17581;43.222;27.924;2023-02-15T14:06:28;102028.78;;;10.07;44.82
30875;BME280;17581;43.222;27.924;2023-02-15T14:09:13;102037.47;;;10.12;45.05
30875;BME280;17581;43.222;27.924;2023-02-15T14:17:14;102041.28;;;10.08;45.06
30875;BME280;17581;43.222;27.924;2023-02-15T14:19:46;102045.25;;;10.01;45.52
30875;BME280;17581;43.222;27.924;2023-02-15T14:22:35;102038.16;;;10.00;45.28
30875;BME280;17581;43.222;27.924;2023-02-15T14:25:30;102040.84;;;10.00;45.74
30875;BME280;17581;43.222;27.924;2023-02-15T14:30:49;102037.63;;;10.09;44.95
30875;BME280;17581;43.222;27.924;2023-02-15T14:35:53;102029.16;;;10.16;44.38
30875;BME280;17581;43.222;27.924;2023-02-15T14:41:11;102043.00;;;10.24;43.63
30875;BME280;17581;43.222;27.924;2023-02-15T14:48:56;102037.56;;;10.26;42.25
30875;BME280;17581;43.222;27.924;2023-02-15T15:02:18;102029.50;;;10.26;40.87
30875;BME280;17581;43.222;27.924;2023-02-15T15:10:34;102031.59;;;10.21;40.16
30875;BME280;17581;43.222;27.924;2023-02-15T15:18:55;102042.41;;;10.19;40.41
30875;BME280;17581;43.222;27.924;2023-02-15T15:30:01;102044.72;;;10.10;40.60
30875;BME280;17581;43.222;27.924;2023-02-15T15:32:32;102043.25;;;10.04;40.93
30875;BME280;17581;43.222;27.924;2023-02-15T15:49:32;102057.38;;;9.76;41.56
30875;BME280;17581;43.222;27.924;2023-02-15T15:52:18;102055.97;;;9.69;41.82
30875;BME280;17581;43.222;27.924;2023-02-15T15:54:45;102056.28;;;9.63;42.25
30875;BME280;17581;43.222;27.924;2023-02-15T15:57:39;102063.69;;;9.60;42.16
30875;BME280;17581;43.222;27.924;2023-02-15T16:02:53;102072.91;;;9.39;42.81
30875;BME280;17581;43.222;27.924;2023-02-15T16:05:19;102068.69;;;9.33;43.02
30875;BME280;17581;43.222;27.924;2023-02-15T16:07:45;102065.56;;;9.25;43.53